sensor_id;sensor_type;location;lat;lon;timestamp;temperature;humidity
12843;DHT22;35724;49.324;-123.118;2023-05-10T00:13:30;25.70;52.10
12843;DHT22;35724;49.324;-123.118;2023-05-10T00:24:44;25.50;51.10
12843;DHT22;35724;49.324;-123.118;2023-05-10T01:00:06;25.70;51.70
12843;DHT22;35724;49.324;-123.118;2023-05-10T01:10:14;25.50;51.40
12843;DHT22;35724;49.324;-123.118;2023-05-10T01:42:11;25.80;50.40
12843;DHT22;35724;49.324;-123.118;2023-05-10T01:52:33;25.80;50.40
12843;DHT22;35724;49.324;-123.118;2023-05-10T02:14:37;25.90;50.80
12843;DHT22;35724;49.324;-123.118;2023-05-10T02:47:29;25.80;50.70
12843;DHT22;35724;49.324;-123.118;2023-05-10T02:57:54;25.80;50.80
12843;DHT22;35724;49.324;-123.118;2023-05-10T03:08:10;25.70;50.80
12843;DHT22;35724;49.324;-123.118;2023-05-10T03:18:21;25.80;51.30
12843;DHT22;35724;49.324;-123.118;2023-05-10T03:28:31;25.90;51.30
12843;DHT22;35724;49.324;-123.118;2023-05-10T03:38:40;26.00;51.50
12843;DHT22;35724;49.324;-123.118;2023-05-10T03:48:53;26.10;51.50
12843;DHT22;35724;49.324;-123.118;2023-05-10T03:59:00;26.20;51.60
12843;DHT22;35724;49.324;-123.118;2023-05-10T04:09:19;26.20;51.70
12843;DHT22;35724;49.324;-123.118;2023-05-10T04:19:33;26.10;51.80
12843;DHT22;35724;49.324;-123.118;2023-05-10T04:29:47;26.10;51.80
12843;DHT22;35724;49.324;-123.118;2023-05-10T04:39:55;26.20;52.60
12843;DHT22;35724;49.324;-123.118;2023-05-10T04:50:04;26.30;52.80
12843;DHT22;35724;49.324;-123.118;2023-05-10T05:00:16;26.40;52.60
12843;DHT22;35724;49.324;-123.118;2023-05-10T05:10:24;26.50;52.70
12843;DHT22;35724;49.324;-123.118;2023-05-10T05:20:33;26.70;52.60
12843;DHT22;35724;49.324;-123.118;2023-05-10T05:42:29;26.80;52.60
12843;DHT22;35724;49.324;-123.118;2023-05-10T05:52:37;26.80;52.50
12843;DHT22;35724;49.324;-123.118;2023-05-10T06:02:46;26.90;52.70
12843;DHT22;35724;49.324;-123.118;2023-05-10T06:12:53;26.90;51.80
12843;DHT22;35724;49.324;-123.118;2023-05-10T06:23:02;26.90;51.50
12843;DHT22;35724;49.324;-123.118;2023-05-10T06:33:09;26.90;51.40
12843;DHT22;35724;49.324;-123.118;2023-05-10T06:43:20;26.80;51.20
12843;DHT22;35724;49.324;-123.118;2023-05-10T06:53:27;26.80;50.90
12843;DHT22;35724;49.324;-123.118;2023-05-10T07:03:36;26.80;50.70
12843;DHT22;35724;49.324;-123.118;2023-05-10T07:13:43;26.80;50.50
12843;DHT22;35724;49.324;-123.118;2023-05-10T07:23:52;26.80;50.30
12843;DHT22;35724;49.324;-123.118;2023-05-10T07:34:03;26.80;50.20
12843;DHT22;35724;49.324;-123.118;2023-05-10T07:44:14;26.80;50.10
12843;DHT22;35724;49.324;-123.118;2023-05-10T07:54:24;26.80;50.00
12843;DHT22;35724;49.324;-123.118;2023-05-10T08:04:32;26.80;49.80
12843;DHT22;35724;49.324;-123.118;2023-05-10T08:14:46;26.80;49.70
12843;DHT22;35724;49.324;-123.118;2023-05-10T08:24:57;26.80;49.50
12843;DHT22;35724;49.324;-123.118;2023-05-10T08:35:05;26.80;49.40
12843;DHT22;35724;49.324;-123.118;2023-05-10T08:45:14;26.80;49.20
12843;DHT22;35724;49.324;-123.118;2023-05-10T08:55:22;26.90;49.20
12843;DHT22;35724;49.324;-123.118;2023-05-10T09:05:32;26.80;49.00
12843;DHT22;35724;49.324;-123.118;2023-05-10T09:15:39;26.90;48.90
12843;DHT22;35724;49.324;-123.118;2023-05-10T09:25:47;26.90;48.80
12843;DHT22;35724;49.324;-123.118;2023-05-10T09:35:54;26.90;48.60
12843;DHT22;35724;49.324;-123.118;2023-05-10T09:46:09;26.90;48.60
12843;DHT22;35724;49.324;-123.118;2023-05-10T09:56:36;26.90;48.40
12843;DHT22;35724;49.324;-123.118;2023-05-10T10:06:47;26.90;48.30
12843;DHT22;35724;49.324;-123.118;2023-05-10T10:17:04;26.90;48.20
12843;DHT22;35724;49.324;-123.118;2023-05-10T10:27:36;26.90;48.10
12843;DHT22;35724;49.324;-123.118;2023-05-10T10:37:46;26.90;48.00
12843;DHT22;35724;49.324;-123.118;2023-05-10T10:48:23;26.90;47.90
12843;DHT22;35724;49.324;-123.118;2023-05-10T10:58:33;26.90;47.80
12843;DHT22;35724;49.324;-123.118;2023-05-10T11:08:45;26.90;47.70
12843;DHT22;35724;49.324;-123.118;2023-05-10T11:18:57;27.00;47.60
12843;DHT22;35724;49.324;-123.118;2023-05-10T11:29:07;27.00;47.50
12843;DHT22;35724;49.324;-123.118;2023-05-10T11:39:14;27.00;47.50
12843;DHT22;35724;49.324;-123.118;2023-05-10T11:49:25;27.00;47.40
12843;DHT22;35724;49.324;-123.118;2023-05-10T11:59:32;27.00;47.20
12843;DHT22;35724;49.324;-123.118;2023-05-10T12:09:48;27.00;47.20
12843;DHT22;35724;49.324;-123.118;2023-05-10T12:20:16;27.00;47.00
12843;DHT22;35724;49.324;-123.118;2023-05-10T12:30:26;27.00;47.00
12843;DHT22;35724;49.324;-123.118;2023-05-10T12:40:33;27.00;46.90
12843;DHT22;35724;49.324;-123.118;2023-05-10T12:50:48;27.00;46.80
12843;DHT22;35724;49.324;-123.118;2023-05-10T13:01:04;27.10;46.80
12843;DHT22;35724;49.324;-123.118;2023-05-10T13:11:36;27.00;46.70
12843;DHT22;35724;49.324;-123.118;2023-05-10T13:21:43;27.10;46.70
12843;DHT22;35724;49.324;-123.118;2023-05-10T13:31:51;27.10;46.70
12843;DHT22;35724;49.324;-123.118;2023-05-10T13:42:15;27.10;46.60
12843;DHT22;35724;49.324;-123.118;2023-05-10T13:52:38;27.10;46.50
12843;DHT22;35724;49.324;-123.118;2023-05-10T14:03:05;27.10;46.40
12843;DHT22;35724;49.324;-123.118;2023-05-10T14:13:30;27.10;46.40
12843;DHT22;35724;49.324;-123.118;2023-05-10T14:24:06;27.10;46.10
12843;DHT22;35724;49.324;-123.118;2023-05-10T14:34:31;27.00;45.60
12843;DHT22;35724;49.324;-123.118;2023-05-10T14:44:48;26.90;45.40
12843;DHT22;35724;49.324;-123.118;2023-05-10T15:07:42;26.80;46.10
12843;DHT22;35724;49.324;-123.118;2023-05-10T15:18:16;26.90;46.30
12843;DHT22;35724;49.324;-123.118;2023-05-10T15:29:05;27.10;46.20
12843;DHT22;35724;49.324;-123.118;2023-05-10T15:40:28;27.10;46.00
12843;DHT22;35724;49.324;-123.118;2023-05-10T16:03:04;26.90;45.20
12843;DHT22;35724;49.324;-123.118;2023-05-10T16:27:50;26.80;44.80
12843;DHT22;35724;49.324;-123.118;2023-05-10T16:50:27;26.50;44.60
12843;DHT22;35724;49.324;-123.118;2023-05-10T17:01:27;26.40;44.40
12843;DHT22;35724;49.324;-123.118;2023-05-10T18:24:00;25.40;48.20
12843;DHT22;35724;49.324;-123.118;2023-05-10T18:46:44;25.20;49.60
12843;DHT22;35724;49.324;-123.118;2023-05-10T18:58:35;25.10;50.40
12843;DHT22;35724;49.324;-123.118;2023-05-10T19:22:27;25.00;51.20
12843;DHT22;35724;49.324;-123.118;2023-05-10T19:34:27;25.00;51.30
12843;DHT22;35724;49.324;-123.118;2023-05-10T19:56:20;24.90;52.20
12843;DHT22;35724;49.324;-123.118;2023-05-10T20:07:54;24.90;51.90
12843;DHT22;35724;49.324;-123.118;2023-05-10T20:43:26;25.10;52.00
12843;DHT22;35724;49.324;-123.118;2023-05-10T20:55:12;25.10;52.20
12843;DHT22;35724;49.324;-123.118;2023-05-10T21:06:53;25.30;51.70
12843;DHT22;35724;49.324;-123.118;2023-05-10T21:29:18;25.50;51.90
12843;DHT22;35724;49.324;-123.118;2023-05-10T21:39:41;25.40;52.10
12843;DHT22;35724;49.324;-123.118;2023-05-10T21:49:56;25.20;52.40
12843;DHT22;35724;49.324;-123.118;2023-05-10T22:00:16;25.30;52.70
12843;DHT22;35724;49.324;-123.118;2023-05-10T22:46:13;25.50;52.30
